AKC weather

Akron Fulton International Airport
Akron, Ohio, United States

Public forecast

Using degrees Fahrenheit for public forecast. Weather courtesy of forecast.io.

Current aviation weather report (METAR) for Akron Fulton International Airport

Retrieved 2019/12/12 20:54 UTC (20 minutes ago):

KAKR 122054Z AUTO 15005KT 10SM CLR 03/M07 A3041 RMK AO2 SLP311 T00281067 56028

Closest aviation forecast (TAF) to Akron Fulton International Airport

Closest forecast is Akron Canton Regional Airport, 7.4 nm (13.7 km) S. Retrieved 2019/12/12 18:40 UTC (3 hours ago):

TAF KCAK 121738Z 1218/1318 17008KT P6SM SCT250 FM131500 17007KT P6SM BKN080